aviador You're here:

LFMY Decoded Metar

SALON in FRANCE
Report Time2018-07-18 19:30:00
UTC Time2018-07-18 20:04:51
Flight Rules vfr VFR
Wind220° at 03 kt
W.Decomp.*RWY 16: 1.5 kt HW 2.6 kt RCW
W.Rank220° ranks 12
Current wind is below 220° avg. (5.5)
Visibility9999 m
Phenomena:N/A
Clouds:N/A
Expected CloudBase > 4,400 ft AGL from Temp-Dew spread
CeilingNone
Temp26°C (ISA +11)
Dew Point15°C (51% RH)
QNH1014 hPa
Density Alt1,709 ft
Elevation197 ft
Report Wrong Elevation
Raw Report
METAR LFMY 181930Z AUTO 22003KT CAVOK 26/15 Q1014=

Extra information for LFMY:More info

Metar Taf Metar & Taf Last 4 Metars F.Rules Stats Wind Profile Meteogram Temp Stats Airport Information Weather charts Add Link Nearby VenuesMetar ALERT Operation Metar Decoded Social comments